createdAt,value
2018-01-27T00:02:12.662Z,5.70
2018-01-27T00:04:40.336Z,5.70
2018-01-27T00:07:10.831Z,5.70
2018-01-27T00:09:39.134Z,5.70
2018-01-27T00:12:06.717Z,5.70
2018-01-27T00:14:34.251Z,5.70
2018-01-27T00:17:01.779Z,5.70
2018-01-27T00:19:29.370Z,5.70
2018-01-27T00:21:56.915Z,5.70
2018-01-27T00:24:24.463Z,5.60
2018-01-27T00:26:52.061Z,5.60
2018-01-27T00:29:19.589Z,5.60
2018-01-27T00:31:47.995Z,5.50
2018-01-27T00:34:15.587Z,5.50
2018-01-27T00:36:43.122Z,5.50
2018-01-27T00:39:11.529Z,5.60
2018-01-27T00:41:39.123Z,5.50
2018-01-27T00:44:06.655Z,5.60
2018-01-27T00:46:34.967Z,5.50
2018-01-27T00:49:02.610Z,5.50
2018-01-27T00:51:30.903Z,5.50
2018-01-27T00:53:59.196Z,5.60
2018-01-27T00:56:27.722Z,5.50
2018-01-27T00:58:55.250Z,5.50
2018-01-27T01:01:23.581Z,5.40
2018-01-27T01:03:51.196Z,5.40
2018-01-27T01:06:19.524Z,5.30
2018-01-27T01:08:47.066Z,5.30
2018-01-27T01:11:15.406Z,5.30
2018-01-27T01:13:42.940Z,5.30
2018-01-27T01:16:11.242Z,5.30
2018-01-27T01:18:38.831Z,5.30
2018-01-27T01:21:06.366Z,5.40
2018-01-27T01:23:34.955Z,5.40
2018-01-27T01:26:03.316Z,5.30
2018-01-27T01:28:30.853Z,5.30
2018-01-27T01:30:58.391Z,5.30
2018-01-27T01:33:26.748Z,5.30
2018-01-27T01:35:54.400Z,5.30
2018-01-27T01:38:21.950Z,5.40
2018-01-27T01:40:50.343Z,5.40
2018-01-27T01:43:23.510Z,5.40
2018-01-27T01:45:51.844Z,5.40
2018-01-27T01:48:19.382Z,5.40
2018-01-27T01:50:47.706Z,5.50
2018-01-27T01:53:15.465Z,5.40
2018-01-27T01:55:43.046Z,5.50
2018-01-27T01:58:10.586Z,5.50
2018-01-27T02:00:38.918Z,5.50
2018-01-27T02:03:06.466Z,5.50
2018-01-27T02:05:33.997Z,5.50
2018-01-27T02:08:01.567Z,5.40
2018-01-27T02:10:29.198Z,5.40
2018-01-27T02:12:56.771Z,5.40
2018-01-27T02:15:24.443Z,5.40
2018-01-27T02:17:51.983Z,5.40
2018-01-27T02:20:19.667Z,5.40
2018-01-27T02:22:47.243Z,5.40
2018-01-27T02:25:14.789Z,5.40
2018-01-27T02:27:43.138Z,5.40
2018-01-27T02:30:10.723Z,5.40
2018-01-27T02:32:38.260Z,5.40
2018-01-27T02:35:05.783Z,5.40
2018-01-27T02:37:34.222Z,5.40
2018-01-27T02:40:01.759Z,5.40
2018-01-27T02:42:30.050Z,5.40
2018-01-27T02:44:58.391Z,5.40
2018-01-27T02:47:25.921Z,5.40
2018-01-27T02:49:53.466Z,5.40
2018-01-27T02:52:21.806Z,5.50
2018-01-27T02:54:49.342Z,5.40
2018-01-27T02:57:16.941Z,5.40
2018-01-27T02:59:44.524Z,5.40
2018-01-27T03:02:12.058Z,5.40
2018-01-27T03:04:39.598Z,5.40
2018-01-27T03:07:07.174Z,5.40
2018-01-27T03:09:34.746Z,5.40
2018-01-27T03:12:02.278Z,5.40
2018-01-27T03:14:29.850Z,5.40
2018-01-27T03:16:57.385Z,5.40
2018-01-27T03:19:24.919Z,5.40
2018-01-27T03:21:52.500Z,5.40
2018-01-27T03:24:20.030Z,5.40
2018-01-27T03:26:47.559Z,5.40
2018-01-27T03:29:15.899Z,5.40
2018-01-27T03:31:43.455Z,5.40
2018-01-27T03:34:10.978Z,5.40
2018-01-27T03:36:39.426Z,5.40
2018-01-27T03:39:06.957Z,5.40
2018-01-27T03:41:34.558Z,5.40
2018-01-27T03:44:02.147Z,5.30
2018-01-27T03:46:29.702Z,5.40
2018-01-27T03:48:57.262Z,5.40
2018-01-27T03:51:24.837Z,5.40
2018-01-27T03:53:52.367Z,5.40
2018-01-27T03:56:20.666Z,5.40
2018-01-27T03:58:49.018Z,5.40
2018-01-27T04:01:16.558Z,5.50
2018-01-27T04:03:44.141Z,5.50
2018-01-27T04:06:11.811Z,5.50
2018-01-27T04:08:39.338Z,5.50
2018-01-27T04:11:07.661Z,5.50
2018-01-27T04:13:35.343Z,5.40
2018-01-27T04:16:02.882Z,5.40
2018-01-27T04:18:31.194Z,5.50
2018-01-27T04:20:58.838Z,5.50
2018-01-27T04:23:27.144Z,5.50
2018-01-27T04:25:54.669Z,5.50
2018-01-27T04:28:23.038Z,5.50
2018-01-27T04:30:50.591Z,5.50
2018-01-27T04:33:18.270Z,5.60
2018-01-27T04:35:45.879Z,5.60
2018-01-27T04:38:13.413Z,5.60
2018-01-27T04:40:40.986Z,5.60
2018-01-27T04:43:08.554Z,5.60
2018-01-27T04:45:36.092Z,5.60
2018-01-27T04:48:03.630Z,5.60
2018-01-27T04:50:31.210Z,5.60
2018-01-27T04:52:58.737Z,5.50
2018-01-27T04:55:26.302Z,5.50
2018-01-27T04:57:54.079Z,5.50
2018-01-27T05:00:21.619Z,5.50
2018-01-27T05:02:49.947Z,5.50
2018-01-27T05:05:17.523Z,5.50
2018-01-27T05:07:45.051Z,5.50
2018-01-27T05:10:13.343Z,5.50
2018-01-27T05:12:40.938Z,5.50
2018-01-27T05:15:08.530Z,5.50
2018-01-27T05:17:36.194Z,5.50
2018-01-27T05:20:03.869Z,5.50
2018-01-27T05:22:31.399Z,5.50
2018-01-27T05:24:59.703Z,5.60
2018-01-27T05:27:27.285Z,5.60
2018-01-27T05:29:54.854Z,5.60
2018-01-27T05:32:22.394Z,5.60
2018-01-27T05:34:50.733Z,5.70
2018-01-27T05:37:18.266Z,5.70
2018-01-27T05:39:45.811Z,5.70
2018-01-27T05:42:13.435Z,5.70
2018-01-27T05:44:41.006Z,5.70
2018-01-27T05:47:08.567Z,5.60
2018-01-27T05:49:36.251Z,5.60
2018-01-27T05:52:08.719Z,5.70
2018-01-27T05:54:36.338Z,5.60
2018-01-27T05:57:03.879Z,5.70
2018-01-27T05:59:31.414Z,5.60
2018-01-27T06:01:59.783Z,5.60
2018-01-27T06:04:28.113Z,5.60
2018-01-27T06:06:55.739Z,5.60
2018-01-27T06:12:54.135Z,5.60
2018-01-27T06:15:21.706Z,5.70
2018-01-27T06:17:50.255Z,5.70
2018-01-27T06:20:18.590Z,5.70
2018-01-27T06:22:46.175Z,5.70
2018-01-27T06:25:13.701Z,5.70
2018-01-27T06:27:41.234Z,5.70
2018-01-27T06:30:09.715Z,5.30
2018-01-27T06:32:37.252Z,5.70
2018-01-27T06:35:04.792Z,5.60
2018-01-27T06:37:33.313Z,5.60
2018-01-27T06:40:00.840Z,5.60
2018-01-27T06:42:28.374Z,5.70
2018-01-27T06:44:56.038Z,5.60
2018-01-27T06:47:23.574Z,5.60
2018-01-27T06:49:51.870Z,5.60
2018-01-27T06:52:20.214Z,5.60
2018-01-27T06:54:47.745Z,5.60
2018-01-27T06:57:15.343Z,5.60
2018-01-27T06:59:42.975Z,5.60
2018-01-27T07:02:10.590Z,5.60
2018-01-27T07:04:38.125Z,5.70
2018-01-27T07:07:05.822Z,5.70
2018-01-27T07:09:33.396Z,5.70
2018-01-27T07:12:00.926Z,5.70
2018-01-27T07:14:29.377Z,5.70
2018-01-27T07:16:56.931Z,5.70
2018-01-27T07:19:24.457Z,5.70
2018-01-27T07:21:52.807Z,5.70
2018-01-27T07:24:20.361Z,5.70
2018-01-27T07:26:47.964Z,5.70
2018-01-27T07:29:15.606Z,5.80
2018-01-27T07:31:43.180Z,5.70
2018-01-27T07:34:10.707Z,5.70
2018-01-27T07:36:39.042Z,5.80
2018-01-27T07:39:06.578Z,5.80
2018-01-27T07:41:34.174Z,5.80
2018-01-27T07:44:01.750Z,5.80
2018-01-27T07:46:29.287Z,5.80
2018-01-27T07:48:57.614Z,5.80
2018-01-27T07:51:25.192Z,5.80
2018-01-27T07:53:52.726Z,5.90
2018-01-27T07:56:20.260Z,5.90
2018-01-27T07:58:48.618Z,5.90
2018-01-27T08:01:16.159Z,5.90
2018-01-27T08:03:43.700Z,5.90
2018-01-27T08:06:11.284Z,5.90
2018-01-27T08:08:39.607Z,5.90
2018-01-27T08:11:07.150Z,5.90
2018-01-27T08:13:35.767Z,5.90
2018-01-27T08:16:03.364Z,5.90
2018-01-27T08:18:30.915Z,6.00
2018-01-27T08:20:59.433Z,6.10
2018-01-27T08:23:26.959Z,6.20
2018-01-27T08:25:54.499Z,6.30
2018-01-27T08:28:22.079Z,6.40
2018-01-27T08:30:49.697Z,6.50
2018-01-27T08:33:17.240Z,6.50
2018-01-27T08:35:44.852Z,6.50
2018-01-27T08:38:12.383Z,6.50
2018-01-27T08:40:40.689Z,6.40
2018-01-27T08:43:08.267Z,6.40
2018-01-27T08:45:35.803Z,6.40
2018-01-27T08:48:04.099Z,6.40
2018-01-27T08:50:32.473Z,6.40
2018-01-27T08:53:00.838Z,6.40
2018-01-27T08:55:28.381Z,6.40
2018-01-27T08:57:56.064Z,6.40
2018-01-27T09:00:23.600Z,6.40
2018-01-27T09:02:51.918Z,6.40
2018-01-27T09:05:19.502Z,6.40
2018-01-27T09:07:47.041Z,6.40
2018-01-27T09:10:14.630Z,6.40
2018-01-27T09:12:42.215Z,6.40
2018-01-27T09:15:09.770Z,6.40
2018-01-27T09:17:37.346Z,6.40
2018-01-27T09:20:05.015Z,6.40
2018-01-27T09:22:32.550Z,6.40
2018-01-27T09:25:00.853Z,6.40
2018-01-27T09:27:28.421Z,6.40
2018-01-27T09:29:56.066Z,6.50
2018-01-27T09:32:23.605Z,6.60
2018-01-27T09:34:51.179Z,6.70
2018-01-27T09:37:18.713Z,6.70
2018-01-27T09:39:46.248Z,6.80
2018-01-27T09:42:14.591Z,7.00
2018-01-27T09:44:42.122Z,6.90
2018-01-27T09:47:10.416Z,7.00
2018-01-27T09:49:38.863Z,7.00
2018-01-27T09:52:06.413Z,7.00
2018-01-27T09:54:33.947Z,7.30
2018-01-27T09:57:02.286Z,7.80
2018-01-27T09:59:29.846Z,7.70
2018-01-27T10:01:57.378Z,7.90
2018-01-27T10:04:25.723Z,7.80
2018-01-27T10:06:53.256Z,7.80
2018-01-27T10:09:20.790Z,7.70
2018-01-27T10:11:48.362Z,7.50
2018-01-27T10:14:17.550Z,7.30
2018-01-27T10:16:45.111Z,7.30
2018-01-27T10:19:12.718Z,7.30
2018-01-27T10:21:40.360Z,7.30
2018-01-27T10:24:07.894Z,7.40
2018-01-27T10:26:35.679Z,7.60
2018-01-27T10:29:03.218Z,7.80
2018-01-27T10:31:31.513Z,8.20
2018-01-27T10:33:59.866Z,8.30
2018-01-27T10:36:27.408Z,8.20
2018-01-27T10:38:54.986Z,8.30
2018-01-27T10:41:22.750Z,8.30
2018-01-27T10:43:50.278Z,8.40
2018-01-27T10:46:17.897Z,8.40
2018-01-27T10:48:45.528Z,8.40
2018-01-27T10:51:13.854Z,8.40
2018-01-27T10:53:41.379Z,8.40
2018-01-27T10:56:08.962Z,8.40
2018-01-27T10:58:37.277Z,8.50
2018-01-27T11:01:04.803Z,8.50
2018-01-27T11:03:33.146Z,8.60
2018-01-27T11:06:00.703Z,8.60
2018-01-27T11:08:28.238Z,8.60
2018-01-27T11:10:55.932Z,8.50
2018-01-27T11:13:23.510Z,8.40
2018-01-27T11:15:51.042Z,8.40
2018-01-27T11:18:18.626Z,8.30
2018-01-27T11:20:46.250Z,8.20
2018-01-27T11:23:13.782Z,8.20
2018-01-27T11:25:42.186Z,8.10
2018-01-27T11:28:09.714Z,8.10
2018-01-27T11:30:37.255Z,8.10
2018-01-27T11:33:04.875Z,8.00
2018-01-27T11:35:32.446Z,8.00
2018-01-27T11:37:59.970Z,8.00
2018-01-27T11:40:27.626Z,8.00
2018-01-27T11:42:55.219Z,7.90
2018-01-27T11:45:22.796Z,7.90
2018-01-27T11:47:50.575Z,7.90
2018-01-27T11:50:18.151Z,7.90
2018-01-27T11:52:45.790Z,7.90
2018-01-27T11:55:13.365Z,7.90
2018-01-27T11:57:40.898Z,7.90
2018-01-27T12:00:08.423Z,8.00
2018-01-27T12:02:36.014Z,8.00
2018-01-27T12:05:03.567Z,8.10
2018-01-27T12:07:31.116Z,8.10
2018-01-27T12:09:58.705Z,8.20
2018-01-27T12:12:26.243Z,8.20
2018-01-27T12:17:28.452Z,8.10
2018-01-27T12:19:56.754Z,8.00
2018-01-27T12:22:24.344Z,8.00
2018-01-27T12:24:51.931Z,7.90
2018-01-27T12:27:19.471Z,7.80
2018-01-27T12:29:47.002Z,7.80
2018-01-27T12:32:14.626Z,7.80
2018-01-27T12:34:42.170Z,8.00
2018-01-27T12:37:09.783Z,8.00
2018-01-27T12:39:37.359Z,8.00
2018-01-27T12:42:04.890Z,7.90
2018-01-27T12:44:32.437Z,8.00
2018-01-27T12:47:00.984Z,8.10
2018-01-27T12:49:28.513Z,8.10
2018-01-27T12:51:56.923Z,8.20
2018-01-27T12:54:24.524Z,8.10
2018-01-27T12:56:52.104Z,8.10
2018-01-27T12:59:19.774Z,8.00
2018-01-27T13:01:47.537Z,8.00
2018-01-27T13:04:15.076Z,8.00
2018-01-27T13:06:42.622Z,8.10
2018-01-27T13:09:10.213Z,8.10
2018-01-27T13:11:38.523Z,8.20
2018-01-27T13:14:06.056Z,8.20
2018-01-27T13:16:34.407Z,8.10
2018-01-27T13:19:01.963Z,8.10
2018-01-27T13:21:29.509Z,8.10
2018-01-27T13:23:57.199Z,8.00
2018-01-27T13:26:24.785Z,8.00
2018-01-27T13:28:52.320Z,7.90
2018-01-27T13:31:19.923Z,7.80
2018-01-27T13:33:47.490Z,7.80
2018-01-27T13:36:15.051Z,7.60
2018-01-27T13:38:42.622Z,7.60
2018-01-27T13:41:10.212Z,7.60
2018-01-27T13:43:37.753Z,7.50
2018-01-27T13:46:05.363Z,7.50
2018-01-27T13:48:32.886Z,7.40
2018-01-27T13:51:01.195Z,7.40
2018-01-27T13:53:28.770Z,7.40
2018-01-27T13:55:56.326Z,7.30
2018-01-27T13:58:23.891Z,7.30
2018-01-27T14:00:52.320Z,7.30
2018-01-27T14:03:19.854Z,7.30
2018-01-27T14:05:48.165Z,7.40
2018-01-27T14:08:15.851Z,7.30
2018-01-27T14:10:43.385Z,7.40
2018-01-27T14:13:11.718Z,7.40
2018-01-27T14:15:39.390Z,7.30
2018-01-27T14:18:06.926Z,7.40
2018-01-27T14:20:34.488Z,7.30
2018-01-27T14:23:02.846Z,7.30
2018-01-27T14:25:30.385Z,7.30
2018-01-27T14:27:57.975Z,7.30
2018-01-27T14:30:25.572Z,7.20
2018-01-27T14:32:53.111Z,7.20
2018-01-27T14:35:20.661Z,7.20
2018-01-27T14:37:48.987Z,7.20
2018-01-27T14:40:16.640Z,7.20
2018-01-27T14:42:44.226Z,7.10
2018-01-27T14:45:11.798Z,7.10
2018-01-27T14:47:39.404Z,7.10
2018-01-27T14:50:07.032Z,7.10
2018-01-27T14:52:34.742Z,7.10
2018-01-27T14:55:02.312Z,7.00
2018-01-27T14:57:29.843Z,7.00
2018-01-27T14:59:57.505Z,7.00
2018-01-27T15:02:25.888Z,7.00
2018-01-27T15:04:53.582Z,6.90
2018-01-27T15:07:21.289Z,6.90
2018-01-27T15:09:50.348Z,6.90
2018-01-27T15:12:17.923Z,6.90
2018-01-27T15:14:45.505Z,6.90
2018-01-27T15:17:13.183Z,7.00
2018-01-27T15:19:40.714Z,7.00
2018-01-27T15:22:09.308Z,6.90
2018-01-27T15:24:37.604Z,6.90
2018-01-27T15:27:05.902Z,6.90
2018-01-27T15:29:33.711Z,6.90
2018-01-27T15:32:01.234Z,6.90
2018-01-27T15:34:29.543Z,6.90
2018-01-27T15:36:57.123Z,6.90
2018-01-27T15:39:24.688Z,6.90
2018-01-27T15:41:52.504Z,6.80
2018-01-27T15:44:21.163Z,6.70
2018-01-27T15:46:50.458Z,6.70
2018-01-27T15:49:18.874Z,6.70
2018-01-27T15:51:46.450Z,6.70
2018-01-27T15:54:14.036Z,6.70
2018-01-27T15:56:43.479Z,6.70
2018-01-27T15:59:11.182Z,6.60
2018-01-27T16:01:39.537Z,6.60
2018-01-27T16:04:07.078Z,6.60
2018-01-27T16:06:34.864Z,6.60
2018-01-27T16:09:02.411Z,6.60
2018-01-27T16:11:29.949Z,6.60
2018-01-27T16:13:57.701Z,6.60
2018-01-27T16:16:25.350Z,6.60
2018-01-27T16:18:52.883Z,6.70
2018-01-27T16:21:21.234Z,6.60
2018-01-27T16:23:48.764Z,6.60
2018-01-27T16:26:16.443Z,6.60
2018-01-27T16:28:44.030Z,6.60
2018-01-27T16:31:11.582Z,6.60
2018-01-27T16:33:39.118Z,6.60
2018-01-27T16:36:06.737Z,6.60
2018-01-27T16:38:35.070Z,6.50
2018-01-27T16:41:04.406Z,6.40
2018-01-27T16:43:32.042Z,6.40
2018-01-27T16:45:59.619Z,6.40
2018-01-27T16:48:27.166Z,6.30
2018-01-27T16:50:56.264Z,6.30
2018-01-27T16:53:23.847Z,6.30
2018-01-27T16:55:51.433Z,6.30
2018-01-27T16:58:19.007Z,6.20
2018-01-27T17:00:46.854Z,6.20
2018-01-27T17:03:14.431Z,6.10
2018-01-27T17:05:41.986Z,6.10
2018-01-27T17:08:09.519Z,6.10
2018-01-27T17:10:37.858Z,6.00
2018-01-27T17:13:05.535Z,6.00
2018-01-27T17:15:33.680Z,5.90
2018-01-27T17:18:01.990Z,5.90
2018-01-27T17:20:29.565Z,5.90
2018-01-27T17:22:57.140Z,5.90
2018-01-27T17:25:24.680Z,5.90
2018-01-27T17:27:53.014Z,5.90
2018-01-27T17:30:20.587Z,5.90
2018-01-27T17:32:48.243Z,5.80
2018-01-27T17:35:15.882Z,5.90
2018-01-27T17:37:44.176Z,5.80
2018-01-27T17:40:12.472Z,5.90
2018-01-27T17:42:40.811Z,5.90
2018-01-27T17:45:08.349Z,5.90
2018-01-27T17:47:35.941Z,5.90
2018-01-27T17:50:03.513Z,5.90
2018-01-27T17:52:31.057Z,6.00
2018-01-27T17:54:58.582Z,6.00
2018-01-27T17:57:26.171Z,6.00
2018-01-27T17:59:53.703Z,6.00
2018-01-27T18:02:21.349Z,6.00
2018-01-27T18:04:49.039Z,6.00
2018-01-27T18:07:16.614Z,6.00
2018-01-27T18:09:44.188Z,6.00
2018-01-27T18:12:11.877Z,6.00
2018-01-27T18:14:39.440Z,6.00
2018-01-27T18:17:07.097Z,5.90
2018-01-27T18:19:34.673Z,6.00
2018-01-27T18:22:02.206Z,6.00
2018-01-27T18:24:30.514Z,6.00
2018-01-27T18:26:58.100Z,6.00
2018-01-27T18:29:25.637Z,6.00
2018-01-27T18:31:53.937Z,6.00
2018-01-27T18:34:22.354Z,6.00
2018-01-27T18:36:49.887Z,6.00
2018-01-27T18:39:18.210Z,6.10
2018-01-27T18:41:45.994Z,6.10
2018-01-27T18:44:13.530Z,6.10
2018-01-27T18:46:41.822Z,6.10
2018-01-27T18:49:10.189Z,6.10
2018-01-27T18:51:37.769Z,6.10
2018-01-27T18:54:06.075Z,6.20
2018-01-27T18:56:33.681Z,6.20
2018-01-27T18:59:01.238Z,6.20
2018-01-27T19:01:28.775Z,6.20
2018-01-27T19:03:57.210Z,6.20
2018-01-27T19:06:24.738Z,6.20
2018-01-27T19:08:53.840Z,6.30
2018-01-27T19:11:21.464Z,6.30
2018-01-27T19:13:48.990Z,6.30
2018-01-27T19:16:17.322Z,6.30
2018-01-27T19:18:45.204Z,6.30
2018-01-27T19:21:13.061Z,6.30
2018-01-27T19:23:40.594Z,6.30
2018-01-27T19:26:08.178Z,6.30
2018-01-27T19:28:37.131Z,6.30
2018-01-27T19:31:05.651Z,6.30
2018-01-27T19:33:33.255Z,6.30
2018-01-27T19:36:01.560Z,6.30
2018-01-27T19:38:29.098Z,6.30
2018-01-27T19:40:57.455Z,6.30
2018-01-27T19:43:24.995Z,6.30
2018-01-27T19:45:52.526Z,6.30
2018-01-27T19:48:20.261Z,6.40
2018-01-27T19:50:47.808Z,6.40
2018-01-27T19:53:15.347Z,6.40
2018-01-27T19:55:43.702Z,6.40
2018-01-27T19:58:11.236Z,6.40
2018-01-27T20:00:38.769Z,6.40
2018-01-27T20:03:06.351Z,6.40
2018-01-27T20:05:34.654Z,6.50
2018-01-27T20:08:02.954Z,6.50
2018-01-27T20:10:30.545Z,6.50
2018-01-27T20:12:58.086Z,6.50
2018-01-27T20:15:26.373Z,6.50
2018-01-27T20:17:54.847Z,6.60
2018-01-27T20:20:22.375Z,6.50
2018-01-27T20:22:50.775Z,6.50
2018-01-27T20:25:18.434Z,6.60
2018-01-27T20:27:45.974Z,6.60
2018-01-27T20:30:14.297Z,6.60
2018-01-27T20:32:41.897Z,6.60
2018-01-27T20:35:09.440Z,6.60
2018-01-27T20:37:37.016Z,6.70
2018-01-27T20:40:04.575Z,6.70
2018-01-27T20:42:32.120Z,6.70
2018-01-27T20:45:00.427Z,6.80
2018-01-27T20:47:28.003Z,6.70
2018-01-27T20:49:55.546Z,6.70
2018-01-27T20:52:23.854Z,6.80
2018-01-27T20:54:51.459Z,6.80
2018-01-27T20:57:19.516Z,6.80
2018-01-27T20:59:47.101Z,6.80
2018-01-27T21:02:14.663Z,6.80
2018-01-27T21:04:42.195Z,6.80
2018-01-27T21:07:11.214Z,6.80
2018-01-27T21:09:39.553Z,6.80
2018-01-27T21:12:07.204Z,6.80
2018-01-27T21:14:34.741Z,6.90
2018-01-27T21:17:03.196Z,6.90
2018-01-27T21:19:30.738Z,6.80
2018-01-27T21:21:58.312Z,6.90
2018-01-27T21:24:25.890Z,6.90
2018-01-27T21:26:53.433Z,6.90
2018-01-27T21:29:21.955Z,6.90
2018-01-27T21:31:49.527Z,6.90
2018-01-27T21:34:17.091Z,7.00
2018-01-27T21:36:44.626Z,7.00
2018-01-27T21:39:13.047Z,7.00
2018-01-27T21:41:40.927Z,6.90
2018-01-27T21:44:08.457Z,7.00
2018-01-27T21:46:36.794Z,7.00
2018-01-27T21:49:04.345Z,6.90
2018-01-27T21:51:31.887Z,7.00
2018-01-27T21:54:00.264Z,7.00
2018-01-27T21:56:27.794Z,6.90
2018-01-27T21:58:55.367Z,6.90
2018-01-27T22:01:22.942Z,6.80
2018-01-27T22:03:50.596Z,6.80
2018-01-27T22:06:18.126Z,6.70
2018-01-27T22:08:45.760Z,6.60
2018-01-27T22:11:13.291Z,6.50
2018-01-27T22:13:41.717Z,6.40
2018-01-27T22:16:09.302Z,6.40
2018-01-27T22:18:36.958Z,6.40
2018-01-27T22:21:04.488Z,6.30
2018-01-27T22:23:32.838Z,6.20
2018-01-27T22:26:00.398Z,6.20
2018-01-27T22:28:27.963Z,6.20
2018-01-27T22:30:55.551Z,6.10
2018-01-27T22:33:23.104Z,6.10
2018-01-27T22:35:50.674Z,6.10
2018-01-27T22:38:18.256Z,6.10
2018-01-27T22:40:45.870Z,6.00
2018-01-27T22:43:14.202Z,6.00
2018-01-27T22:45:41.885Z,5.90
2018-01-27T22:48:09.538Z,5.90
2018-01-27T22:50:37.078Z,5.80
2018-01-27T22:53:05.418Z,5.80
2018-01-27T22:55:33.827Z,5.70
2018-01-27T22:58:01.466Z,5.70
2018-01-27T23:00:29.047Z,5.70
2018-01-27T23:02:56.600Z,5.70
2018-01-27T23:05:24.134Z,5.70
2018-01-27T23:07:51.706Z,5.70
2018-01-27T23:10:19.234Z,5.70
2018-01-27T23:12:46.762Z,5.70
2018-01-27T23:15:15.146Z,5.70
2018-01-27T23:17:43.450Z,5.70
2018-01-27T23:20:12.363Z,5.80
2018-01-27T23:22:40.143Z,5.70
2018-01-27T23:25:07.673Z,5.80
2018-01-27T23:27:35.207Z,5.80
2018-01-27T23:30:02.792Z,5.80
2018-01-27T23:32:30.323Z,5.80
2018-01-27T23:34:58.842Z,5.90
2018-01-27T23:37:26.420Z,5.90
2018-01-27T23:39:53.968Z,5.90
2018-01-27T23:42:21.505Z,5.90
2018-01-27T23:44:49.871Z,5.90
2018-01-27T23:47:17.497Z,5.90
2018-01-27T23:49:45.244Z,5.90
2018-01-27T23:52:12.866Z,5.90
2018-01-27T23:54:40.434Z,5.90
2018-01-27T23:57:08.382Z,5.90
2018-01-27T23:59:35.998Z,5.90
